Time;durP1;ratioP1;P1;durP2;ratioP2;P2;SDS_P1;SDS_P2;PMS_P1;PMS_P2;Temp;Humidity;BMP_temperature;BMP_pressure;BME280_temperature;BME280_humidity;BME280_pressure;Samples;Min_cycle;Max_cycle;Signal;HPM_P1;HPM_P2
2022/07/24 00:00:32;;;;;;;4.38;3.97;;;24.10;99.90;;;;;;4232589;28;20213;-78
2022/07/24 00:02:34;;;;;;;4.43;4.07;;;24.10;99.90;;;;;;4232600;28;20247;-79
2022/07/24 00:04:36;;;;;;;4.78;4.38;;;24.10;99.90;;;;;;4232512;28;20251;-79
2022/07/24 00:06:39;;;;;;;4.70;4.30;;;24.10;99.90;;;;;;4233158;28;20721;-79
2022/07/24 00:08:41;;;;;;;4.78;4.38;;;24.10;99.90;;;;;;4232453;28;20271;-79
2022/07/24 00:10:43;;;;;;;4.93;4.47;;;24.10;99.90;;;;;;4232664;28;20262;-79
2022/07/24 00:12:46;;;;;;;4.95;4.40;;;24.10;99.90;;;;;;4232379;28;20243;-79
2022/07/24 00:14:48;;;;;;;4.60;4.20;;;24.00;99.90;;;;;;4232664;28;20298;-79
2022/07/24 00:16:51;;;;;;;4.40;4.03;;;24.10;99.90;;;;;;4232618;28;20190;-79
2022/07/24 00:18:54;;;;;;;6.35;4.80;;;24.10;99.90;;;;;;4232452;28;20279;-79
2022/07/24 00:20:56;;;;;;;5.20;4.60;;;24.00;99.90;;;;;;4232418;28;20557;-79
2022/07/24 00:22:58;;;;;;;5.18;4.43;;;24.10;99.90;;;;;;4231999;28;20274;-79
2022/07/24 00:25:01;;;;;;;5.55;4.95;;;24.00;99.90;;;;;;4232107;28;20601;-79
2022/07/24 00:27:04;;;;;;;4.90;4.45;;;24.10;99.90;;;;;;4231905;28;20218;-79
2022/07/24 00:29:06;;;;;;;5.40;4.55;;;24.00;99.90;;;;;;4231862;28;20213;-79
2022/07/24 00:31:08;;;;;;;4.88;4.38;;;24.00;99.90;;;;;;4231958;28;20217;-79
2022/07/24 00:33:12;;;;;;;5.38;4.95;;;24.00;99.90;;;;;;4232146;28;20282;-79
2022/07/24 00:35:14;;;;;;;4.90;4.50;;;24.00;99.90;;;;;;4232147;28;20628;-79
2022/07/24 00:37:17;;;;;;;4.90;4.40;;;24.00;99.90;;;;;;4232022;28;20213;-79
2022/07/24 00:39:19;;;;;;;4.93;4.53;;;24.00;99.90;;;;;;4231827;28;20255;-79
2022/07/24 00:41:21;;;;;;;5.88;5.10;;;24.00;99.90;;;;;;4231487;28;20681;-79
2022/07/24 00:43:23;;;;;;;4.97;4.50;;;24.00;99.90;;;;;;4230986;28;20221;-79
2022/07/24 00:45:26;;;;;;;5.75;4.72;;;24.00;99.90;;;;;;4232096;28;20214;-79
2022/07/24 00:47:28;;;;;;;4.80;4.40;;;24.00;99.90;;;;;;4231657;28;20572;-79
2022/07/24 00:49:32;;;;;;;5.80;5.05;;;24.00;99.90;;;;;;4231668;28;20591;-78
2022/07/24 00:51:34;;;;;;;6.00;5.40;;;24.00;99.90;;;;;;4231583;28;20243;-79
2022/07/24 00:53:37;;;;;;;5.40;4.90;;;24.00;99.90;;;;;;4231380;28;20614;-78
2022/07/24 00:55:39;;;;;;;5.20;4.72;;;24.00;99.90;;;;;;4231904;28;20242;-78
2022/07/24 00:57:43;;;;;;;6.38;4.72;;;23.90;99.90;;;;;;4232313;28;20190;-78
2022/07/24 00:59:46;;;;;;;5.10;4.70;;;23.90;99.90;;;;;;4231741;28;20214;-78
2022/07/24 01:01:49;;;;;;;6.20;4.35;;;23.90;99.90;;;;;;4231480;28;20209;-78
2022/07/24 01:03:51;;;;;;;5.10;4.70;;;23.90;99.90;;;;;;4231264;28;20217;-78
2022/07/24 01:05:55;;;;;;;5.38;4.82;;;23.90;99.90;;;;;;4231571;28;20259;-78
2022/07/24 01:07:57;;;;;;;5.38;4.93;;;24.00;99.90;;;;;;4231329;28;20210;-79
2022/07/24 01:10:00;;;;;;;5.57;5.07;;;24.00;99.90;;;;;;4231557;28;20989;-78
2022/07/24 01:12:04;;;;;;;6.65;5.22;;;24.00;99.90;;;;;;4231811;28;20225;-78
2022/07/24 01:14:07;;;;;;;4.85;4.40;;;23.90;99.90;;;;;;4231144;28;20267;-78
2022/07/24 01:16:10;;;;;;;5.28;4.85;;;23.90;99.90;;;;;;4231153;28;20214;-78
2022/07/24 01:18:12;;;;;;;5.40;4.72;;;23.90;99.90;;;;;;4231013;28;20267;-78
2022/07/24 01:20:15;;;;;;;5.57;5.07;;;23.90;99.90;;;;;;4231099;28;20673;-78
2022/07/24 01:22:18;;;;;;;5.82;5.30;;;23.90;99.90;;;;;;4230999;28;20266;-78
2022/07/24 01:24:22;;;;;;;4.95;4.53;;;23.90;99.90;;;;;;4231152;28;20630;-78
2022/07/24 01:26:24;;;;;;;5.28;4.78;;;23.90;99.90;;;;;;4231293;28;20214;-78
2022/07/24 01:28:26;;;;;;;5.47;4.97;;;23.90;99.90;;;;;;4231123;28;20222;-78
2022/07/24 01:30:28;;;;;;;6.05;5.45;;;23.90;99.90;;;;;;4230649;28;20210;-78
2022/07/24 01:32:31;;;;;;;5.05;4.63;;;23.90;99.90;;;;;;4230965;28;20213;-78
2022/07/24 01:34:33;;;;;;;5.95;5.43;;;23.90;99.90;;;;;;4230679;28;20282;-78
2022/07/24 01:36:35;;;;;;;5.40;4.90;;;23.90;99.90;;;;;;4231285;28;20271;-78
2022/07/24 01:38:39;;;;;;;5.22;4.72;;;23.90;99.90;;;;;;4230895;28;20218;-78
2022/07/24 01:40:42;;;;;;;4.97;4.57;;;23.90;99.90;;;;;;4230733;28;20751;-78
2022/07/24 01:42:44;;;;;;;5.30;4.80;;;23.90;99.90;;;;;;4230894;28;20255;-78
2022/07/24 01:44:46;;;;;;;5.30;4.80;;;23.90;99.90;;;;;;4230921;28;20542;-78
2022/07/24 01:46:49;;;;;;;5.32;4.93;;;23.90;99.90;;;;;;4230637;28;20217;-78
2022/07/24 01:48:51;;;;;;;5.80;5.28;;;23.90;99.90;;;;;;4231036;28;20247;-78
2022/07/24 01:50:53;;;;;;;5.55;5.05;;;23.90;99.90;;;;;;4230941;28;20270;-78
2022/07/24 01:52:56;;;;;;;6.03;5.53;;;23.90;99.90;;;;;;4230999;28;20544;-78
2022/07/24 01:55:00;;;;;;;5.93;5.32;;;23.90;99.90;;;;;;4230219;28;20237;-78
2022/07/24 01:57:02;;;;;;;5.80;5.20;;;23.90;99.90;;;;;;4230858;28;20669;-78
2022/07/24 01:59:04;;;;;;;5.45;4.95;;;23.90;99.90;;;;;;4230573;28;20267;-77
2022/07/24 02:01:07;;;;;;;5.47;4.82;;;23.80;99.90;;;;;;4230794;28;20283;-78
2022/07/24 02:03:09;;;;;;;5.75;5.20;;;23.90;99.90;;;;;;4230418;28;20214;-78
2022/07/24 02:05:12;;;;;;;5.55;5.03;;;23.80;99.90;;;;;;4230493;28;20674;-78
2022/07/24 02:07:15;;;;;;;5.38;4.88;;;23.80;99.90;;;;;;4230415;28;20662;-78
2022/07/24 02:09:17;;;;;;;5.25;4.75;;;23.90;99.90;;;;;;4230483;28;20209;-78
2022/07/24 02:11:21;;;;;;;5.45;4.95;;;23.80;99.90;;;;;;4230536;28;20255;-78
2022/07/24 02:13:25;;;;;;;5.07;4.68;;;23.80;99.90;;;;;;4230722;28;20613;-78
2022/07/24 02:15:28;;;;;;;4.90;4.50;;;23.80;99.90;;;;;;4230115;28;20306;-78
2022/07/24 02:17:30;;;;;;;5.50;5.00;;;23.80;99.90;;;;;;4230512;28;20218;-78
2022/07/24 02:19:32;;;;;;;5.57;5.10;;;23.80;99.90;;;;;;4230242;28;20217;-78
2022/07/24 02:21:35;;;;;;;5.40;4.90;;;23.80;99.90;;;;;;4230620;28;20612;-78
2022/07/24 02:23:37;;;;;;;5.40;4.90;;;23.80;99.90;;;;;;4230303;28;20214;-78
2022/07/24 02:25:39;;;;;;;6.07;4.90;;;23.80;99.90;;;;;;4230385;28;20662;-78
2022/07/24 02:27:43;;;;;;;5.07;4.57;;;23.80;99.90;;;;;;4230385;28;20221;-78
2022/07/24 02:29:46;;;;;;;6.13;4.78;;;23.80;99.90;;;;;;4230195;28;20718;-78
2022/07/24 02:31:48;;;;;;;4.97;4.57;;;23.80;99.90;;;;;;4230333;28;20612;-78
2022/07/24 02:33:50;;;;;;;5.70;5.20;;;23.80;99.90;;;;;;4230390;28;20202;-78
2022/07/24 02:35:53;;;;;;;6.82;5.45;;;23.80;99.90;;;;;;4229826;28;20233;-78
2022/07/24 02:37:55;;;;;;;6.00;4.85;;;23.70;99.90;;;;;;4230144;28;20218;-77
2022/07/24 02:39:57;;;;;;;5.75;5.15;;;23.80;99.90;;;;;;4230113;28;20221;-78
2022/07/24 02:42:00;;;;;;;5.95;5.45;;;23.80;99.90;;;;;;4230387;28;20263;-78
2022/07/24 02:44:04;;;;;;;5.63;5.13;;;23.80;99.90;;;;;;4229886;28;20259;-78
2022/07/24 02:46:06;;;;;;;5.40;5.00;;;23.80;99.90;;;;;;4229751;28;20270;-78
2022/07/24 02:48:08;;;;;;;5.95;5.45;;;23.80;99.90;;;;;;4229892;28;20687;-78
2022/07/24 02:50:11;;;;;;;7.97;4.93;;;23.70;99.90;;;;;;4229985;28;20213;-78
2022/07/24 02:52:13;;;;;;;5.50;4.97;;;23.80;99.90;;;;;;4230183;28;20218;-78
2022/07/24 02:54:15;;;;;;;5.05;4.65;;;23.70;99.90;;;;;;4230114;28;20730;-78
2022/07/24 02:56:18;;;;;;;5.15;4.60;;;23.80;99.90;;;;;;4229586;28;20290;-78
2022/07/24 02:58:20;;;;;;;5.65;5.15;;;23.70;99.90;;;;;;4229984;28;20213;-78
2022/07/24 03:00:24;;;;;;;5.53;5.03;;;23.80;99.90;;;;;;4229810;28;20214;-78
2022/07/24 03:02:26;;;;;;;5.93;4.90;;;23.80;99.90;;;;;;4229775;28;20214;-78
2022/07/24 03:04:29;;;;;;;5.70;5.20;;;23.70;99.90;;;;;;4229831;28;20218;-78
2022/07/24 03:06:31;;;;;;;6.00;5.40;;;23.70;99.90;;;;;;4229684;28;20209;-78
2022/07/24 03:08:33;;;;;;;5.45;4.97;;;23.70;99.90;;;;;;4229696;28;20274;-78
2022/07/24 03:10:36;;;;;;;5.30;4.80;;;23.70;99.90;;;;;;4229459;28;20218;-78
2022/07/24 03:12:38;;;;;;;5.82;5.32;;;23.70;99.90;;;;;;4229770;28;20217;-78
2022/07/24 03:14:40;;;;;;;4.85;4.45;;;23.70;99.90;;;;;;4229650;28;20263;-78
2022/07/24 03:16:44;;;;;;;6.20;5.60;;;23.70;99.90;;;;;;4229830;28;20241;-77
2022/07/24 03:18:48;;;;;;;5.80;5.20;;;23.70;99.90;;;;;;4229841;28;20270;-82
2022/07/24 03:20:50;;;;;;;5.32;4.82;;;23.70;99.90;;;;;;4230038;28;20266;-82
2022/07/24 03:22:52;;;;;;;5.60;5.07;;;23.70;99.90;;;;;;4229674;28;20218;-82
2022/07/24 03:24:55;;;;;;;5.32;4.93;;;23.70;99.90;;;;;;4229709;28;20351;-82
2022/07/24 03:26:57;;;;;;;5.63;5.13;;;23.70;99.90;;;;;;4229352;28;20251;-82
2022/07/24 03:28:59;;;;;;;5.55;5.05;;;23.70;99.90;;;;;;4230183;28;20596;-82
2022/07/24 03:31:02;;;;;;;6.10;5.53;;;23.70;99.90;;;;;;4229883;28;20266;-82
2022/07/24 03:33:05;;;;;;;5.55;5.05;;;23.70;99.90;;;;;;4229861;28;20217;-82
2022/07/24 03:35:09;;;;;;;6.20;5.22;;;23.70;99.90;;;;;;4229707;28;20217;-82
2022/07/24 03:37:11;;;;;;;5.38;4.53;;;23.70;99.90;;;;;;4229353;28;20259;-82
2022/07/24 03:39:13;;;;;;;5.65;5.15;;;23.70;99.90;;;;;;4229663;28;20250;-82
2022/07/24 03:41:15;;;;;;;6.53;5.03;;;23.70;99.90;;;;;;4229577;28;20685;-82
2022/07/24 03:43:18;;;;;;;5.40;4.95;;;23.70;99.90;;;;;;4230278;28;20748;-82
2022/07/24 03:45:20;;;;;;;6.07;5.22;;;23.70;99.90;;;;;;4229630;28;20213;-82
2022/07/24 03:47:22;;;;;;;5.70;5.20;;;23.70;99.90;;;;;;4229414;28;20209;-82
2022/07/24 03:49:26;;;;;;;5.65;5.15;;;23.70;99.90;;;;;;4229323;28;20267;-82
2022/07/24 03:51:28;;;;;;;5.63;5.13;;;23.70;99.90;;;;;;4229570;28;20267;-82
2022/07/24 03:53:31;;;;;;;5.65;5.15;;;23.70;99.90;;;;;;4229282;28;20237;-82
2022/07/24 03:55:33;;;;;;;5.20;4.70;;;23.70;99.90;;;;;;4229687;28;20210;-82
2022/07/24 03:57:35;;;;;;;6.07;5.53;;;23.70;99.90;;;;;;4229914;28;20545;-82
2022/07/24 03:59:38;;;;;;;5.55;5.05;;;23.70;99.90;;;;;;4229757;28;20210;-82
2022/07/24 04:01:40;;;;;;;5.40;4.90;;;23.70;99.90;;;;;;4229462;28;20213;-82
2022/07/24 04:03:42;;;;;;;5.28;4.78;;;23.70;99.90;;;;;;4229112;28;20217;-82
2022/07/24 04:05:46;;;;;;;5.78;5.00;;;23.60;99.90;;;;;;4229577;28;20210;-82
2022/07/24 04:07:48;;;;;;;6.03;5.43;;;23.60;99.90;;;;;;4229524;28;20365;-82
2022/07/24 04:09:51;;;;;;;7.80;5.32;;;23.60;99.90;;;;;;4229576;28;20214;-82
2022/07/24 04:11:53;;;;;;;5.53;5.05;;;23.60;99.90;;;;;;4229370;28;20214;-82
2022/07/24 04:13:55;;;;;;;6.28;5.45;;;23.60;99.90;;;;;;4229651;28;20603;-82
2022/07/24 04:15:58;;;;;;;6.45;5.88;;;23.60;99.90;;;;;;4229204;28;20295;-82
2022/07/24 04:18:01;;;;;;;5.90;5.40;;;23.70;99.90;;;;;;4230137;28;20333;-82
2022/07/24 04:20:04;;;;;;;6.13;5.60;;;23.60;99.90;;;;;;4232472;28;20218;-82
2022/07/24 04:22:07;;;;;;;6.57;5.97;;;23.70;99.90;;;;;;4232230;28;20217;-82
2022/07/24 04:24:10;;;;;;;6.15;5.65;;;23.60;99.90;;;;;;4232348;28;20236;-82
2022/07/24 04:26:12;;;;;;;6.95;6.25;;;23.60;99.90;;;;;;4232246;28;20218;-82
2022/07/24 04:28:15;;;;;;;5.93;5.40;;;23.60;99.90;;;;;;4232188;28;20666;-82
2022/07/24 04:30:17;;;;;;;6.93;5.97;;;23.60;99.90;;;;;;4231839;28;20210;-82
2022/07/24 04:32:20;;;;;;;6.72;6.03;;;23.60;99.90;;;;;;4232282;28;20214;-82
2022/07/24 04:34:22;;;;;;;6.53;5.93;;;23.60;99.90;;;;;;4232242;28;20266;-82
2022/07/24 04:36:24;;;;;;;6.57;5.97;;;23.60;99.90;;;;;;4232374;28;20238;-82
2022/07/24 04:38:28;;;;;;;6.32;5.68;;;23.60;99.90;;;;;;4232110;28;20209;-82
2022/07/24 04:40:30;;;;;;;7.00;5.55;;;23.60;99.90;;;;;;4231317;28;20229;-82
2022/07/24 04:42:32;;;;;;;7.28;5.78;;;23.60;99.90;;;;;;4231791;28;20250;-82
2022/07/24 04:44:35;;;;;;;7.47;5.97;;;23.60;99.90;;;;;;4231738;28;20217;-82
2022/07/24 04:46:37;;;;;;;6.55;5.95;;;23.60;99.90;;;;;;4232045;28;20250;-82
2022/07/24 04:48:39;;;;;;;6.80;6.22;;;23.60;99.90;;;;;;4232164;28;20255;-82
2022/07/24 04:50:42;;;;;;;6.60;5.97;;;23.50;99.90;;;;;;4232209;28;20621;-82
2022/07/24 04:52:44;;;;;;;6.35;5.85;;;23.60;99.90;;;;;;4231580;28;20266;-82
2022/07/24 04:54:48;;;;;;;8.02;6.10;;;23.50;99.90;;;;;;4231734;28;20209;-82
2022/07/24 04:56:50;;;;;;;7.40;6.72;;;23.50;99.90;;;;;;4231043;28;20245;-82
2022/07/24 04:58:52;;;;;;;6.43;5.82;;;23.60;99.90;;;;;;4231839;28;20266;-82
2022/07/24 05:00:55;;;;;;;6.95;6.35;;;23.60;99.90;;;;;;4231468;28;20271;-82
2022/07/24 05:02:57;;;;;;;7.10;6.50;;;23.50;99.90;;;;;;4231377;28;20217;-82
2022/07/24 05:04:59;;;;;;;6.70;6.10;;;23.60;99.90;;;;;;4231683;28;20266;-82
2022/07/24 05:07:02;;;;;;;7.55;5.90;;;23.60;99.90;;;;;;4231176;28;20266;-82
2022/07/24 05:09:04;;;;;;;6.50;5.90;;;23.60;99.90;;;;;;4231555;28;20603;-82
2022/07/24 05:11:08;;;;;;;8.07;6.22;;;23.60;99.90;;;;;;4231442;28;20349;-82
2022/07/24 05:13:10;;;;;;;7.15;6.10;;;23.50;99.90;;;;;;4231505;28;20255;-81
2022/07/24 05:15:13;;;;;;;7.10;6.50;;;23.50;99.90;;;;;;4231480;28;20669;-81
2022/07/24 05:17:15;;;;;;;6.47;5.80;;;23.60;99.90;;;;;;4231450;28;20238;-82
2022/07/24 05:19:18;;;;;;;7.32;6.63;;;23.60;99.90;;;;;;4231590;28;20322;-81
2022/07/24 05:21:20;;;;;;;6.78;6.18;;;23.60;99.90;;;;;;4230736;28;20263;-82
2022/07/24 05:23:22;;;;;;;6.90;6.25;;;23.50;99.90;;;;;;4231668;28;20273;-81
2022/07/24 05:25:25;;;;;;;7.25;6.55;;;23.60;99.90;;;;;;4230984;28;20221;-82
2022/07/24 05:27:28;;;;;;;6.72;6.03;;;23.50;99.90;;;;;;4231435;28;20258;-82
2022/07/24 05:29:30;;;;;;;6.78;6.07;;;23.50;99.90;;;;;;4230881;28;20205;-82
2022/07/24 05:31:33;;;;;;;7.28;6.57;;;23.60;99.90;;;;;;4231074;28;20209;-82
2022/07/24 05:33:36;;;;;;;7.43;6.70;;;23.50;99.90;;;;;;4230842;28;20217;-83
2022/07/24 05:35:38;;;;;;;8.40;6.43;;;23.50;99.90;;;;;;4231116;28;20267;-83
2022/07/24 05:37:40;;;;;;;6.88;6.18;;;23.50;99.90;;;;;;4231229;28;20217;-83
2022/07/24 05:39:43;;;;;;;7.32;6.72;;;23.60;99.90;;;;;;4230687;28;20317;-82
2022/07/24 05:41:45;;;;;;;7.35;6.63;;;23.60;99.90;;;;;;4230545;28;20304;-83
2022/07/24 05:43:49;;;;;;;8.95;6.10;;;23.50;99.90;;;;;;4230842;28;20282;-83
2022/07/24 05:45:51;;;;;;;7.70;6.57;;;23.50;99.90;;;;;;4230802;28;20217;-82
2022/07/24 05:47:53;;;;;;;6.60;6.00;;;23.50;99.90;;;;;;4231027;28;20258;-82
2022/07/24 05:49:55;;;;;;;6.45;5.85;;;23.60;99.90;;;;;;4231210;28;20294;-83
2022/07/24 05:51:58;;;;;;;8.10;6.20;;;23.50;99.90;;;;;;4230809;28;20273;-83
2022/07/24 05:54:00;;;;;;;7.25;6.55;;;23.50;99.90;;;;;;4231048;28;20734;-82
2022/07/24 05:56:03;;;;;;;7.25;6.55;;;23.50;99.90;;;;;;4230681;28;20214;-83
2022/07/24 05:58:05;;;;;;;7.72;6.93;;;23.60;99.90;;;;;;4230653;28;20237;-82
2022/07/24 06:00:10;;;;;;;6.68;6.07;;;23.60;99.90;;;;;;4231025;28;20218;-82
2022/07/24 06:02:12;;;;;;;6.65;6.05;;;23.60;99.90;;;;;;4230995;28;20560;-82
2022/07/24 06:04:15;;;;;;;6.70;6.10;;;23.60;99.90;;;;;;4230943;28;20248;-82
2022/07/24 06:06:17;;;;;;;7.97;6.05;;;23.60;99.90;;;;;;4230486;28;20222;-82
2022/07/24 06:08:19;;;;;;;7.72;7.03;;;23.60;99.90;;;;;;4230710;28;20240;-82
2022/07/24 06:10:21;;;;;;;6.30;5.70;;;23.60;99.90;;;;;;4230354;28;20221;-82
2022/07/24 06:12:24;;;;;;;7.47;6.78;;;23.60;99.90;;;;;;4230697;28;20822;-82
2022/07/24 06:14:26;;;;;;;6.57;5.90;;;23.60;99.90;;;;;;4230772;28;20278;-82
2022/07/24 06:16:30;;;;;;;6.47;5.88;;;23.60;99.90;;;;;;4230649;28;20213;-82
2022/07/24 06:18:32;;;;;;;7.85;6.63;;;23.60;99.90;;;;;;4230334;28;20634;-82
2022/07/24 06:20:34;;;;;;;6.82;6.22;;;23.60;99.90;;;;;;4230337;28;20303;-82
2022/07/24 06:22:37;;;;;;;7.30;6.60;;;23.60;99.90;;;;;;4230320;28;20326;-82
2022/07/24 06:24:39;;;;;;;6.38;5.82;;;23.60;99.90;;;;;;4230662;28;20217;-82
2022/07/24 06:26:41;;;;;;;7.43;6.65;;;23.60;99.90;;;;;;4230401;28;20268;-82
2022/07/24 06:28:44;;;;;;;6.90;6.30;;;23.60;99.90;;;;;;4229898;28;20213;-78
2022/07/24 06:30:46;;;;;;;6.43;5.93;;;23.60;99.90;;;;;;4230210;28;20218;-78
2022/07/24 06:32:50;;;;;;;6.55;5.90;;;23.60;99.90;;;;;;4230305;28;20206;-78
2022/07/24 06:34:52;;;;;;;6.45;5.85;;;23.60;99.90;;;;;;4229897;28;20214;-78
2022/07/24 06:36:55;;;;;;;6.85;6.20;;;23.60;99.90;;;;;;4230081;28;20361;-78
2022/07/24 06:38:57;;;;;;;6.70;6.00;;;23.60;99.90;;;;;;4230360;28;20661;-78
2022/07/24 06:40:59;;;;;;;6.75;6.10;;;23.60;99.90;;;;;;4228995;28;20288;-78
2022/07/24 06:43:01;;;;;;;6.93;6.25;;;23.60;99.90;;;;;;4229957;28;20255;-78
2022/07/24 06:45:05;;;;;;;6.90;6.30;;;23.60;99.90;;;;;;4230214;28;20266;-78
2022/07/24 06:47:08;;;;;;;7.15;6.45;;;23.60;99.90;;;;;;4230256;28;20222;-78
2022/07/24 06:49:11;;;;;;;6.40;5.85;;;23.60;99.90;;;;;;4229512;28;20221;-78
2022/07/24 06:51:13;;;;;;;7.40;6.05;;;23.50;99.90;;;;;;4230174;28;20214;-78
2022/07/24 06:53:16;;;;;;;6.50;5.88;;;23.60;99.90;;;;;;4229881;28;20206;-78
2022/07/24 06:55:18;;;;;;;8.13;5.72;;;23.60;99.90;;;;;;4229765;28;20282;-78
2022/07/24 06:57:21;;;;;;;6.30;5.70;;;23.60;99.90;;;;;;4229975;28;20286;-78
2022/07/24 06:59:23;;;;;;;6.32;5.72;;;23.60;99.90;;;;;;4214482;28;20218;-78
2022/07/24 07:01:25;;;;;;;6.53;5.80;;;23.60;99.90;;;;;;4213340;28;20222;-78
2022/07/24 07:03:28;;;;;;;6.70;6.00;;;23.60;99.90;;;;;;4212960;28;20218;-78
2022/07/24 07:05:32;;;;;;;6.57;5.40;;;23.60;99.90;;;;;;4213193;28;20214;-78
2022/07/24 07:07:35;;;;;;;6.32;5.82;;;23.60;99.90;;;;;;4212579;28;20214;-78
2022/07/24 07:09:38;;;;;;;6.25;5.75;;;23.60;99.90;;;;;;4213119;28;20218;-78
2022/07/24 07:11:40;;;;;;;5.97;5.45;;;23.60;99.90;;;;;;4213268;28;20733;-78
2022/07/24 07:13:42;;;;;;;5.80;5.25;;;23.60;99.90;;;;;;4212756;28;20267;-78
2022/07/24 07:15:45;;;;;;;6.60;5.75;;;23.60;99.90;;;;;;4213525;28;20218;-78
2022/07/24 07:17:47;;;;;;;6.15;5.65;;;23.60;99.90;;;;;;4213123;28;20295;-79
2022/07/24 07:19:49;;;;;;;6.55;5.95;;;23.60;99.90;;;;;;4212928;28;20210;-79
2022/07/24 07:21:53;;;;;;;6.50;5.30;;;23.60;99.90;;;;;;4213023;28;20212;-79
2022/07/24 07:23:55;;;;;;;6.20;5.60;;;23.60;99.90;;;;;;4212975;28;20271;-79
2022/07/24 07:25:57;;;;;;;6.35;5.75;;;23.60;99.90;;;;;;4212950;28;20217;-79
2022/07/24 07:28:00;;;;;;;6.60;6.00;;;23.60;99.90;;;;;;4213229;28;20215;-79
2022/07/24 07:30:02;;;;;;;6.03;5.53;;;23.60;99.90;;;;;;4221710;28;20613;-79
2022/07/24 07:32:05;;;;;;;6.28;5.20;;;23.70;99.90;;;;;;4229602;28;20258;-79
2022/07/24 07:34:08;;;;;;;5.90;5.40;;;23.60;99.90;;;;;;4229337;28;20217;-79
2022/07/24 07:36:10;;;;;;;6.35;5.75;;;23.60;99.90;;;;;;4229499;28;20213;-79
2022/07/24 07:38:14;;;;;;;5.60;5.10;;;23.60;99.90;;;;;;4229423;28;20234;-79
2022/07/24 07:40:16;;;;;;;6.30;5.70;;;23.70;99.90;;;;;;4229215;28;20233;-79
2022/07/24 07:42:19;;;;;;;6.20;5.55;;;23.70;99.90;;;;;;4229619;28;20662;-79
2022/07/24 07:44:21;;;;;;;6.15;5.60;;;23.60;99.90;;;;;;4229671;28;20661;-79
2022/07/24 07:46:24;;;;;;;5.95;5.38;;;23.60;99.90;;;;;;4229645;28;20217;-78
2022/07/24 07:48:26;;;;;;;6.53;5.93;;;23.70;99.90;;;;;;4229504;28;20209;-78
2022/07/24 07:50:29;;;;;;;6.22;5.63;;;23.70;99.90;;;;;;4229370;28;20214;-79
2022/07/24 07:52:31;;;;;;;5.90;5.40;;;23.70;99.90;;;;;;4231819;28;20606;-78
2022/07/24 07:54:35;;;;;;;6.65;5.93;;;23.70;99.90;;;;;;4232763;28;20665;-78
2022/07/24 07:56:37;;;;;;;5.93;5.32;;;23.70;99.90;;;;;;4232967;28;20213;-78
2022/07/24 07:58:39;;;;;;;5.82;5.30;;;23.70;99.90;;;;;;4232399;28;20233;-79
2022/07/24 08:00:42;;;;;;;6.05;5.30;;;23.70;99.90;;;;;;4232749;28;20367;-78
2022/07/24 08:02:44;;;;;;;6.45;5.85;;;23.70;99.90;;;;;;4232391;28;20283;-78
2022/07/24 08:04:46;;;;;;;5.45;4.95;;;23.70;99.90;;;;;;4232678;28;20727;-78
2022/07/24 08:06:49;;;;;;;5.78;5.28;;;23.70;99.90;;;;;;4232692;28;20266;-78
2022/07/24 08:08:51;;;;;;;5.45;4.95;;;23.70;99.90;;;;;;4232505;28;20206;-79
2022/07/24 08:10:55;;;;;;;5.60;5.10;;;23.70;99.90;;;;;;4232559;28;20596;-79
2022/07/24 08:12:57;;;;;;;5.13;4.63;;;23.70;99.90;;;;;;4232308;28;20214;-79
2022/07/24 08:14:59;;;;;;;5.93;5.32;;;23.70;99.90;;;;;;4232270;28;20217;-79
2022/07/24 08:17:01;;;;;;;5.68;5.13;;;23.80;99.90;;;;;;4232489;28;20221;-79
2022/07/24 08:19:04;;;;;;;5.78;5.28;;;23.70;99.90;;;;;;4232713;28;20609;-79
2022/07/24 08:21:06;;;;;;;5.90;5.30;;;23.70;99.90;;;;;;4232351;28;20255;-79
2022/07/24 08:23:09;;;;;;;5.30;4.80;;;23.80;99.90;;;;;;4232335;28;20270;-79
2022/07/24 08:25:11;;;;;;;5.18;4.70;;;23.80;99.90;;;;;;4231829;28;20213;-79
2022/07/24 08:27:14;;;;;;;5.72;5.22;;;23.80;99.90;;;;;;4232246;28;20213;-79
2022/07/24 08:29:17;;;;;;;5.38;4.88;;;23.80;99.90;;;;;;4231510;28;20209;-79
2022/07/24 08:31:19;;;;;;;5.07;4.57;;;23.80;99.90;;;;;;4232845;28;20536;-79
2022/07/24 08:33:22;;;;;;;5.55;5.05;;;23.80;99.90;;;;;;4232091;28;20255;-79
2022/07/24 08:35:24;;;;;;;5.78;5.30;;;23.80;99.90;;;;;;4232093;28;20237;-79
2022/07/24 08:37:26;;;;;;;5.32;4.82;;;23.80;99.90;;;;;;4231870;28;20726;-79
2022/07/24 08:39:29;;;;;;;5.70;5.13;;;23.80;99.90;;;;;;4231839;28;20233;-79
2022/07/24 08:41:35;;;;;;;5.55;4.95;;;23.80;99.90;;;;;;4231969;28;20238;-79
2022/07/24 08:43:38;;;;;;;5.53;5.03;;;23.80;99.90;;;;;;4232105;28;20239;-79
2022/07/24 08:45:43;;;;;;;5.15;4.65;;;23.80;99.90;;;;;;4232187;28;20213;-79
2022/07/24 08:47:46;;;;;;;5.25;4.75;;;23.90;99.90;;;;;;4232031;28;20209;-79
2022/07/24 08:49:54;;;;;;;5.55;5.05;;;23.80;99.90;;;;;;4231875;28;20210;-79
2022/07/24 08:52:02;;;;;;;5.30;4.80;;;23.80;99.90;;;;;;4232069;28;20213;-79
2022/07/24 08:54:05;;;;;;;5.50;5.00;;;23.90;99.90;;;;;;4232190;28;20209;-78
2022/07/24 08:56:08;;;;;;;5.25;4.70;;;23.90;99.90;;;;;;4232073;28;20214;-79
2022/07/24 08:58:10;;;;;;;5.47;4.80;;;23.90;99.90;;;;;;4232071;28;20209;-84
2022/07/24 09:00:15;;;;;;;5.05;4.57;;;23.90;99.90;;;;;;4231861;28;20217;-83
2022/07/24 09:02:18;;;;;;;5.43;4.82;;;23.90;99.90;;;;;;4231863;28;20238;-84
2022/07/24 09:04:38;;;;;;;5.05;4.65;;;23.90;99.90;;;;;;4230770;28;20221;-84
2022/07/24 09:06:56;;;;;;;4.90;4.50;;;23.90;99.90;;;;;;4232036;28;20661;-84
2022/07/24 09:09:01;;;;;;;5.22;4.72;;;23.90;99.90;;;;;;4231262;28;20206;-84
2022/07/24 09:11:05;;;;;;;4.97;4.47;;;23.90;99.90;;;;;;4231781;28;20605;-83
2022/07/24 09:13:15;;;;;;;4.88;4.47;;;23.90;99.90;;;;;;4231276;28;20263;-79
2022/07/24 09:15:22;;;;;;;5.20;4.20;;;23.90;99.90;;;;;;4231348;28;20251;-79
2022/07/24 09:17:25;;;;;;;4.38;3.97;;;23.90;99.90;;;;;;4231358;28;20209;-79
2022/07/24 09:19:27;;;;;;;4.90;4.50;;;23.90;99.90;;;;;;4231132;28;20274;-79
2022/07/24 09:21:33;;;;;;;5.60;4.53;;;23.90;99.90;;;;;;4231659;28;20254;-79
2022/07/24 09:23:38;;;;;;;5.00;4.47;;;23.90;99.90;;;;;;4231008;28;20266;-79
2022/07/24 09:25:40;;;;;;;4.95;4.50;;;23.90;99.90;;;;;;4231042;28;20214;-79
2022/07/24 09:27:48;;;;;;;5.07;4.57;;;23.90;99.90;;;;;;4231863;28;20699;-79
2022/07/24 09:29:50;;;;;;;5.00;4.60;;;23.90;99.90;;;;;;4230979;28;20205;-79
2022/07/24 09:31:57;;;;;;;4.55;4.15;;;23.90;99.90;;;;;;4231118;28;20218;-79
2022/07/24 09:34:09;;;;;;;4.80;4.30;;;24.00;99.90;;;;;;4231122;28;20263;-79
2022/07/24 09:36:16;;;;;;;5.75;4.25;;;24.00;99.90;;;;;;4231134;28;20286;-83
2022/07/24 09:38:21;;;;;;;4.60;4.18;;;23.90;99.90;;;;;;4231085;28;20247;-84
2022/07/24 09:40:29;;;;;;;4.80;4.40;;;24.00;99.90;;;;;;4230618;28;20633;-83
2022/07/24 09:42:38;;;;;;;4.72;4.32;;;23.90;99.90;;;;;;4231038;28;20213;-84
2022/07/24 09:44:41;;;;;;;5.03;4.53;;;24.00;99.90;;;;;;4230929;28;20218;-83
2022/07/24 09:46:47;;;;;;;4.80;4.30;;;24.00;99.90;;;;;;4230801;28;20217;-84
2022/07/24 09:48:57;;;;;;;4.40;4.10;;;24.00;99.90;;;;;;4230885;28;20217;-84
2022/07/24 09:51:00;;;;;;;5.10;4.40;;;24.00;99.90;;;;;;4230634;28;20654;-84
2022/07/24 09:53:05;;;;;;;4.93;4.53;;;24.00;99.90;;;;;;4230795;28;20217;-83
2022/07/24 09:55:21;;;;;;;4.90;4.32;;;24.00;99.90;;;;;;4230708;28;20243;-83
2022/07/24 09:57:25;;;;;;;4.90;4.40;;;24.00;99.90;;;;;;4230729;28;20217;-83
2022/07/24 09:59:31;;;;;;;4.75;4.28;;;24.00;99.90;;;;;;4230402;28;20241;-84
2022/07/24 10:01:36;;;;;;;4.68;4.28;;;24.00;99.90;;;;;;4230679;28;20286;-84
2022/07/24 10:03:40;;;;;;;4.82;4.43;;;24.00;99.90;;;;;;4230786;28;20644;-83
2022/07/24 10:05:47;;;;;;;4.40;4.10;;;24.00;99.90;;;;;;4230542;28;20723;-83
2022/07/24 10:07:54;;;;;;;4.28;3.88;;;24.00;99.90;;;;;;4230719;28;20649;-83
2022/07/24 10:09:58;;;;;;;4.80;4.20;;;24.10;99.90;;;;;;4230349;28;20213;-83
2022/07/24 10:12:04;;;;;;;4.60;4.15;;;24.10;99.90;;;;;;4230574;28;20557;-83
2022/07/24 10:14:06;;;;;;;4.38;3.95;;;24.10;99.90;;;;;;4230301;28;20549;-83
2022/07/24 10:16:27;;;;;;;4.13;3.78;;;24.10;99.90;;;;;;4230334;28;20214;-83
2022/07/24 10:18:37;;;;;;;3.88;3.58;;;24.10;99.90;;;;;;4230357;28;20214;-84
2022/07/24 10:20:42;;;;;;;4.10;3.67;;;24.10;99.90;;;;;;4230128;28;20237;-82
2022/07/24 10:23:01;;;;;;;4.18;3.63;;;24.10;99.90;;;;;;4230543;28;20197;-83
2022/07/24 10:25:08;;;;;;;4.07;3.78;;;24.10;99.90;;;;;;4230370;28;20218;-83
2022/07/24 10:27:23;;;;;;;3.95;3.63;;;24.10;99.90;;;;;;4230517;28;20263;-83
2022/07/24 10:29:25;;;;;;;4.32;3.92;;;24.10;99.90;;;;;;4230153;28;20247;-83
2022/07/24 10:31:29;;;;;;;4.57;4.15;;;24.10;99.90;;;;;;4230012;28;20282;-83
2022/07/24 10:33:32;;;;;;;5.55;3.97;;;24.20;99.90;;;;;;4230228;28;20213;-83
2022/07/24 10:35:37;;;;;;;4.25;3.85;;;24.10;99.90;;;;;;4230210;28;20213;-83
2022/07/24 10:37:49;;;;;;;4.10;3.72;;;24.20;99.90;;;;;;4230398;28;20218;-83
2022/07/24 10:40:09;;;;;;;4.20;3.80;;;24.20;99.90;;;;;;4229936;28;20283;-83
2022/07/24 10:42:11;;;;;;;4.57;4.00;;;24.20;99.90;;;;;;4197142;28;20279;-84